Decoded Metar for LEST (SANTIAGO in SPAIN) (IATA:SCQ) | Meteo·Mobile Aviation Weather
aviador You're here:

LEST Decoded Metar

SANTIAGO in SPAIN
Report Time2019-07-20 14:00:00
UTC Time2019-07-20 14:11:24
Flight Rules vfr VFR
Wind270° at 06 kt
W.Decomp.*RWY 35: 1.3 kt HW 5.8 kt LCW
Visibility9999 m
Phenomena:N/A
Clouds:Scattered 042 Hf
Expected CloudBase > 3,600 ft AGL from Temp-Dew spread
CeilingNone
Temp24°C (ISA +11)
Dew Point15°C (57% RH)
AAT23.4°C
QNH1019 hPa
Density Alt2,552 ft
Elevation1,204 ft
Report Wrong Elevation
Raw Report
METAR LEST 201400Z 27006KT 240V320 9999 SCT042 24/15 Q1019 NOSIG=

Extra information for LEST:More info

Metar Taf Metar & Taf Last 4 Metars F.Rules Stats Wind Profile Meteogram Temp Stats Airport Information Weather charts Add Link Nearby VenuesMetar ALERT Operation Metar Decoded Social comments